TAMU Turf Lab's Hourly Summary for Sunday, July 8, 2018
Hour Temp
(f)
RH
(%)
Solar Rad.
(MJ/m2)
Rainfall
(in)
Wind
(mph)
7/8/2018 12:00 AM 74 90 0 0 0.56
7/8/2018 1:00 AM 74 91 0 0 2.2
7/8/2018 2:00 AM 74 92 0 0 1.84
7/8/2018 3:00 AM 74 92 0 0 0.92
7/8/2018 4:00 AM 73 93 0 0 2.02
7/8/2018 5:00 AM 73 94 0 0 1.84
7/8/2018 6:00 AM 73 95 0 0 1.68
7/8/2018 7:00 AM 73 95 0.01 0 2.13
7/8/2018 8:00 AM 73 95 0.17 0 1.92
7/8/2018 9:00 AM 73 95 0.43 0 1.98
7/8/2018 10:00 AM 74 91 1.32 0 1.54
7/8/2018 11:00 AM 77 76 1.38 0 3.16
7/8/2018 12:00 PM 81 66 2.02 0 1.97
7/8/2018 1:00 PM 84 58 2.43 0 3.68
7/8/2018 2:00 PM 82 58 1.57 0.01 5.18
7/8/2018 3:00 PM 79 61 1.91 0 6.37
7/8/2018 4:00 PM 77 72 0.74 0 4.23
7/8/2018 5:00 PM 79 70 0.78 0 3.96
7/8/2018 6:00 PM 78 71 0.69 0 4.87
7/8/2018 7:00 PM 79 72 0.84 0 4.16
7/8/2018 8:00 PM 79 71 0.34 0 3.51
7/8/2018 9:00 PM 78 77 0.03 0 1.31
7/8/2018 10:00 PM 77 78 0 0 2.61
7/8/2018 11:00 PM 76 82 0 0 4.11
Data Summary 76 80 14.66 0.01 2.82